sensor_id;sensor_type;location;lat;lon;timestamp;P1;durP1;ratioP1;P2;durP2;ratioP2
485;SDS011;229;48.734;9.340;2022-10-26T00:00:10;10.18;;;3.85;;
485;SDS011;229;48.734;9.340;2022-10-26T00:02:37;6.90;;;4.40;;
485;SDS011;229;48.734;9.340;2022-10-26T00:05:06;15.52;;;4.22;;
485;SDS011;229;48.734;9.340;2022-10-26T00:07:33;8.63;;;4.30;;
485;SDS011;229;48.734;9.340;2022-10-26T00:10:00;9.00;;;4.00;;
485;SDS011;229;48.734;9.340;2022-10-26T00:12:27;7.55;;;3.97;;
485;SDS011;229;48.734;9.340;2022-10-26T00:14:54;5.97;;;4.38;;
485;SDS011;229;48.734;9.340;2022-10-26T00:17:22;7.40;;;4.43;;
485;SDS011;229;48.734;9.340;2022-10-26T00:19:49;18.27;;;4.47;;
485;SDS011;229;48.734;9.340;2022-10-26T00:22:17;10.23;;;4.40;;
485;SDS011;229;48.734;9.340;2022-10-26T00:24:44;10.90;;;4.57;;
485;SDS011;229;48.734;9.340;2022-10-26T00:27:12;7.78;;;4.38;;
485;SDS011;229;48.734;9.340;2022-10-26T00:29:39;9.43;;;4.05;;
485;SDS011;229;48.734;9.340;2022-10-26T00:32:06;18.00;;;4.80;;
485;SDS011;229;48.734;9.340;2022-10-26T00:34:33;10.85;;;4.55;;
485;SDS011;229;48.734;9.340;2022-10-26T00:37:00;8.32;;;3.80;;
485;SDS011;229;48.734;9.340;2022-10-26T00:39:29;10.38;;;4.10;;
485;SDS011;229;48.734;9.340;2022-10-26T00:41:56;6.75;;;4.22;;
485;SDS011;229;48.734;9.340;2022-10-26T00:47:09;10.80;;;4.30;;
485;SDS011;229;48.734;9.340;2022-10-26T00:49:37;7.05;;;4.43;;
485;SDS011;229;48.734;9.340;2022-10-26T00:52:04;6.55;;;3.92;;
485;SDS011;229;48.734;9.340;2022-10-26T00:54:34;7.38;;;3.50;;
485;SDS011;229;48.734;9.340;2022-10-26T00:57:01;6.32;;;4.05;;
485;SDS011;229;48.734;9.340;2022-10-26T00:59:28;13.25;;;4.22;;
485;SDS011;229;48.734;9.340;2022-10-26T01:01:56;6.60;;;3.70;;
485;SDS011;229;48.734;9.340;2022-10-26T01:04:24;8.60;;;4.68;;
485;SDS011;229;48.734;9.340;2022-10-26T01:06:51;6.63;;;3.67;;
485;SDS011;229;48.734;9.340;2022-10-26T01:09:19;6.13;;;3.80;;
485;SDS011;229;48.734;9.340;2022-10-26T01:11:47;11.55;;;4.28;;
485;SDS011;229;48.734;9.340;2022-10-26T01:14:15;8.88;;;3.55;;
485;SDS011;229;48.734;9.340;2022-10-26T01:16:48;9.07;;;4.00;;
485;SDS011;229;48.734;9.340;2022-10-26T01:19:48;5.70;;;3.40;;
485;SDS011;229;48.734;9.340;2022-10-26T01:22:21;8.35;;;4.40;;
485;SDS011;229;48.734;9.340;2022-10-26T01:27:34;8.98;;;4.45;;
485;SDS011;229;48.734;9.340;2022-10-26T01:30:14;7.50;;;4.57;;
485;SDS011;229;48.734;9.340;2022-10-26T01:32:44;12.68;;;4.18;;
485;SDS011;229;48.734;9.340;2022-10-26T01:35:13;14.50;;;4.32;;
485;SDS011;229;48.734;9.340;2022-10-26T01:37:43;9.70;;;4.85;;
485;SDS011;229;48.734;9.340;2022-10-26T01:40:14;7.90;;;3.92;;
485;SDS011;229;48.734;9.340;2022-10-26T01:42:43;9.38;;;5.28;;
485;SDS011;229;48.734;9.340;2022-10-26T01:45:14;9.68;;;5.00;;
485;SDS011;229;48.734;9.340;2022-10-26T01:47:42;8.73;;;4.60;;
485;SDS011;229;48.734;9.340;2022-10-26T01:50:10;8.55;;;4.90;;
485;SDS011;229;48.734;9.340;2022-10-26T01:52:37;13.43;;;4.85;;
485;SDS011;229;48.734;9.340;2022-10-26T01:55:06;10.40;;;5.55;;
485;SDS011;229;48.734;9.340;2022-10-26T01:57:34;9.10;;;5.15;;
485;SDS011;229;48.734;9.340;2022-10-26T02:00:03;9.50;;;4.68;;
485;SDS011;229;48.734;9.340;2022-10-26T02:02:44;10.35;;;5.97;;
485;SDS011;229;48.734;9.340;2022-10-26T02:08:18;7.22;;;5.00;;
485;SDS011;229;48.734;9.340;2022-10-26T02:10:52;7.95;;;4.80;;
485;SDS011;229;48.734;9.340;2022-10-26T02:13:25;12.77;;;5.00;;
485;SDS011;229;48.734;9.340;2022-10-26T02:15:55;10.75;;;4.57;;
485;SDS011;229;48.734;9.340;2022-10-26T02:18:30;14.48;;;6.20;;
485;SDS011;229;48.734;9.340;2022-10-26T02:20:58;12.38;;;5.30;;
485;SDS011;229;48.734;9.340;2022-10-26T02:23:26;10.60;;;4.80;;
485;SDS011;229;48.734;9.340;2022-10-26T02:25:55;7.57;;;4.75;;
485;SDS011;229;48.734;9.340;2022-10-26T02:28:26;8.88;;;4.80;;
485;SDS011;229;48.734;9.340;2022-10-26T02:30:55;9.73;;;4.90;;
485;SDS011;229;48.734;9.340;2022-10-26T02:33:23;11.77;;;5.43;;
485;SDS011;229;48.734;9.340;2022-10-26T02:35:53;12.27;;;6.38;;
485;SDS011;229;48.734;9.340;2022-10-26T02:38:21;14.95;;;6.72;;
485;SDS011;229;48.734;9.340;2022-10-26T02:40:49;15.43;;;6.85;;
485;SDS011;229;48.734;9.340;2022-10-26T02:43:17;9.88;;;5.70;;
485;SDS011;229;48.734;9.340;2022-10-26T02:45:48;11.90;;;5.90;;
485;SDS011;229;48.734;9.340;2022-10-26T02:48:16;10.32;;;6.25;;
485;SDS011;229;48.734;9.340;2022-10-26T02:50:47;11.10;;;6.25;;
485;SDS011;229;48.734;9.340;2022-10-26T02:53:20;16.13;;;5.90;;
485;SDS011;229;48.734;9.340;2022-10-26T02:55:50;10.55;;;5.10;;
485;SDS011;229;48.734;9.340;2022-10-26T02:58:18;12.93;;;4.90;;
485;SDS011;229;48.734;9.340;2022-10-26T03:00:46;12.30;;;5.75;;
485;SDS011;229;48.734;9.340;2022-10-26T03:03:15;14.98;;;6.47;;
485;SDS011;229;48.734;9.340;2022-10-26T03:05:42;10.95;;;5.40;;
485;SDS011;229;48.734;9.340;2022-10-26T03:08:09;10.68;;;5.45;;
485;SDS011;229;48.734;9.340;2022-10-26T03:10:39;13.90;;;6.75;;
485;SDS011;229;48.734;9.340;2022-10-26T03:13:06;11.90;;;5.68;;
485;SDS011;229;48.734;9.340;2022-10-26T03:15:33;11.90;;;5.80;;
485;SDS011;229;48.734;9.340;2022-10-26T03:18:00;12.23;;;7.00;;
485;SDS011;229;48.734;9.340;2022-10-26T03:20:28;13.63;;;6.75;;
485;SDS011;229;48.734;9.340;2022-10-26T03:22:55;16.17;;;8.15;;
485;SDS011;229;48.734;9.340;2022-10-26T03:25:24;20.60;;;8.48;;
485;SDS011;229;48.734;9.340;2022-10-26T03:27:59;19.05;;;9.70;;
485;SDS011;229;48.734;9.340;2022-10-26T03:30:27;19.15;;;9.57;;
485;SDS011;229;48.734;9.340;2022-10-26T03:32:54;16.17;;;10.35;;
485;SDS011;229;48.734;9.340;2022-10-26T03:35:21;23.70;;;10.10;;
485;SDS011;229;48.734;9.340;2022-10-26T03:37:48;18.50;;;9.73;;
485;SDS011;229;48.734;9.340;2022-10-26T03:40:15;13.38;;;9.65;;
485;SDS011;229;48.734;9.340;2022-10-26T03:42:43;20.58;;;11.75;;
485;SDS011;229;48.734;9.340;2022-10-26T03:45:11;18.63;;;9.40;;
485;SDS011;229;48.734;9.340;2022-10-26T03:47:42;13.20;;;8.30;;
485;SDS011;229;48.734;9.340;2022-10-26T03:50:10;17.33;;;10.43;;
485;SDS011;229;48.734;9.340;2022-10-26T03:52:37;15.98;;;9.88;;
485;SDS011;229;48.734;9.340;2022-10-26T03:55:05;18.35;;;11.00;;
485;SDS011;229;48.734;9.340;2022-10-26T03:57:32;18.25;;;10.70;;
485;SDS011;229;48.734;9.340;2022-10-26T03:59:59;15.23;;;10.70;;
485;SDS011;229;48.734;9.340;2022-10-26T04:02:28;12.52;;;8.40;;
485;SDS011;229;48.734;9.340;2022-10-26T04:04:55;14.60;;;8.50;;
485;SDS011;229;48.734;9.340;2022-10-26T04:07:23;15.73;;;8.30;;
485;SDS011;229;48.734;9.340;2022-10-26T04:09:50;19.23;;;9.50;;
485;SDS011;229;48.734;9.340;2022-10-26T04:12:17;11.70;;;8.48;;
485;SDS011;229;48.734;9.340;2022-10-26T04:14:44;13.63;;;7.60;;
485;SDS011;229;48.734;9.340;2022-10-26T04:17:11;16.75;;;7.15;;
485;SDS011;229;48.734;9.340;2022-10-26T04:19:41;13.32;;;6.50;;
485;SDS011;229;48.734;9.340;2022-10-26T04:22:09;15.48;;;7.00;;
485;SDS011;229;48.734;9.340;2022-10-26T04:24:36;17.38;;;6.30;;
485;SDS011;229;48.734;9.340;2022-10-26T04:27:03;16.98;;;5.50;;
485;SDS011;229;48.734;9.340;2022-10-26T04:29:30;10.88;;;5.57;;
485;SDS011;229;48.734;9.340;2022-10-26T04:31:57;9.77;;;5.43;;
485;SDS011;229;48.734;9.340;2022-10-26T04:34:24;11.52;;;5.32;;
485;SDS011;229;48.734;9.340;2022-10-26T04:36:53;11.80;;;5.43;;
485;SDS011;229;48.734;9.340;2022-10-26T04:39:21;14.82;;;5.80;;
485;SDS011;229;48.734;9.340;2022-10-26T04:41:48;10.70;;;5.50;;
485;SDS011;229;48.734;9.340;2022-10-26T04:44:15;8.40;;;5.85;;
485;SDS011;229;48.734;9.340;2022-10-26T04:46:42;11.23;;;5.80;;
485;SDS011;229;48.734;9.340;2022-10-26T04:49:09;7.90;;;5.15;;
485;SDS011;229;48.734;9.340;2022-10-26T04:51:37;11.85;;;6.07;;
485;SDS011;229;48.734;9.340;2022-10-26T04:54:05;9.57;;;5.00;;
485;SDS011;229;48.734;9.340;2022-10-26T04:56:32;13.52;;;5.53;;
485;SDS011;229;48.734;9.340;2022-10-26T04:58:59;10.75;;;5.75;;
485;SDS011;229;48.734;9.340;2022-10-26T05:01:27;10.02;;;5.93;;
485;SDS011;229;48.734;9.340;2022-10-26T05:03:54;12.20;;;5.85;;
485;SDS011;229;48.734;9.340;2022-10-26T05:06:21;5.88;;;4.80;;
485;SDS011;229;48.734;9.340;2022-10-26T05:08:48;9.18;;;5.72;;
485;SDS011;229;48.734;9.340;2022-10-26T05:11:17;7.03;;;5.45;;
485;SDS011;229;48.734;9.340;2022-10-26T05:13:45;11.13;;;5.75;;
485;SDS011;229;48.734;9.340;2022-10-26T05:16:13;10.40;;;5.57;;
485;SDS011;229;48.734;9.340;2022-10-26T05:18:41;10.60;;;5.53;;
485;SDS011;229;48.734;9.340;2022-10-26T05:21:08;11.93;;;5.95;;
485;SDS011;229;48.734;9.340;2022-10-26T05:23:36;9.27;;;5.88;;
485;SDS011;229;48.734;9.340;2022-10-26T05:26:03;8.60;;;5.40;;
485;SDS011;229;48.734;9.340;2022-10-26T05:28:32;11.57;;;4.95;;
485;SDS011;229;48.734;9.340;2022-10-26T05:30:59;7.10;;;5.05;;
485;SDS011;229;48.734;9.340;2022-10-26T05:33:26;13.27;;;5.35;;
485;SDS011;229;48.734;9.340;2022-10-26T05:35:53;7.40;;;5.30;;
485;SDS011;229;48.734;9.340;2022-10-26T05:38:20;14.13;;;5.40;;
485;SDS011;229;48.734;9.340;2022-10-26T05:40:48;10.00;;;6.93;;
485;SDS011;229;48.734;9.340;2022-10-26T05:43:15;11.55;;;6.20;;
485;SDS011;229;48.734;9.340;2022-10-26T05:45:43;10.13;;;6.40;;
485;SDS011;229;48.734;9.340;2022-10-26T05:48:11;10.40;;;6.28;;
485;SDS011;229;48.734;9.340;2022-10-26T05:50:38;9.75;;;5.50;;
485;SDS011;229;48.734;9.340;2022-10-26T05:53:05;12.52;;;5.57;;
485;SDS011;229;48.734;9.340;2022-10-26T05:55:33;8.23;;;5.25;;
485;SDS011;229;48.734;9.340;2022-10-26T05:58:00;5.93;;;4.90;;
485;SDS011;229;48.734;9.340;2022-10-26T06:00:28;10.02;;;5.00;;
485;SDS011;229;48.734;9.340;2022-10-26T06:03:03;8.45;;;4.40;;
485;SDS011;229;48.734;9.340;2022-10-26T06:05:34;12.18;;;4.95;;
485;SDS011;229;48.734;9.340;2022-10-26T06:08:02;7.05;;;4.78;;
485;SDS011;229;48.734;9.340;2022-10-26T06:10:29;7.00;;;4.82;;
485;SDS011;229;48.734;9.340;2022-10-26T06:12:57;9.77;;;4.63;;
485;SDS011;229;48.734;9.340;2022-10-26T06:15:24;8.68;;;5.88;;
485;SDS011;229;48.734;9.340;2022-10-26T06:17:54;10.35;;;6.13;;
485;SDS011;229;48.734;9.340;2022-10-26T06:20:30;10.95;;;6.03;;
485;SDS011;229;48.734;9.340;2022-10-26T06:23:04;15.32;;;7.30;;
485;SDS011;229;48.734;9.340;2022-10-26T06:25:36;13.32;;;7.70;;
485;SDS011;229;48.734;9.340;2022-10-26T06:28:12;12.27;;;7.38;;
485;SDS011;229;48.734;9.340;2022-10-26T06:30:44;13.38;;;7.88;;
485;SDS011;229;48.734;9.340;2022-10-26T06:33:11;13.48;;;8.48;;
485;SDS011;229;48.734;9.340;2022-10-26T06:35:42;17.17;;;8.48;;
485;SDS011;229;48.734;9.340;2022-10-26T06:38:12;18.25;;;9.15;;
485;SDS011;229;48.734;9.340;2022-10-26T06:40:41;15.10;;;8.75;;
485;SDS011;229;48.734;9.340;2022-10-26T06:43:10;15.30;;;9.35;;
485;SDS011;229;48.734;9.340;2022-10-26T06:45:38;15.30;;;8.82;;
485;SDS011;229;48.734;9.340;2022-10-26T06:48:08;15.00;;;8.95;;
485;SDS011;229;48.734;9.340;2022-10-26T06:50:36;12.50;;;8.05;;
485;SDS011;229;48.734;9.340;2022-10-26T06:53:13;15.85;;;8.10;;
485;SDS011;229;48.734;9.340;2022-10-26T06:55:43;12.30;;;7.47;;
485;SDS011;229;48.734;9.340;2022-10-26T06:58:12;12.43;;;7.30;;
485;SDS011;229;48.734;9.340;2022-10-26T07:00:41;16.00;;;8.30;;
485;SDS011;229;48.734;9.340;2022-10-26T07:03:09;15.93;;;8.40;;
485;SDS011;229;48.734;9.340;2022-10-26T07:05:37;21.55;;;7.53;;
485;SDS011;229;48.734;9.340;2022-10-26T07:08:04;12.55;;;7.15;;
485;SDS011;229;48.734;9.340;2022-10-26T07:10:33;8.68;;;4.85;;
485;SDS011;229;48.734;9.340;2022-10-26T07:13:03;12.68;;;6.72;;
485;SDS011;229;48.734;9.340;2022-10-26T07:15:30;10.13;;;7.18;;
485;SDS011;229;48.734;9.340;2022-10-26T07:17:57;11.63;;;7.63;;
485;SDS011;229;48.734;9.340;2022-10-26T07:20:24;15.98;;;8.13;;
485;SDS011;229;48.734;9.340;2022-10-26T07:22:52;12.40;;;7.30;;
485;SDS011;229;48.734;9.340;2022-10-26T07:25:19;12.13;;;7.60;;
485;SDS011;229;48.734;9.340;2022-10-26T07:27:48;15.05;;;7.95;;
485;SDS011;229;48.734;9.340;2022-10-26T07:30:15;15.40;;;7.70;;
485;SDS011;229;48.734;9.340;2022-10-26T07:32:43;16.70;;;6.85;;
485;SDS011;229;48.734;9.340;2022-10-26T07:35:10;9.63;;;6.40;;
485;SDS011;229;48.734;9.340;2022-10-26T07:37:37;9.63;;;6.45;;
485;SDS011;229;48.734;9.340;2022-10-26T07:40:05;9.73;;;6.18;;
485;SDS011;229;48.734;9.340;2022-10-26T07:42:32;12.63;;;6.35;;
485;SDS011;229;48.734;9.340;2022-10-26T07:45:02;18.30;;;8.60;;
485;SDS011;229;48.734;9.340;2022-10-26T07:47:29;15.93;;;8.70;;
485;SDS011;229;48.734;9.340;2022-10-26T07:49:56;15.65;;;8.32;;
485;SDS011;229;48.734;9.340;2022-10-26T07:52:24;13.75;;;7.15;;
485;SDS011;229;48.734;9.340;2022-10-26T07:54:51;12.75;;;7.05;;
485;SDS011;229;48.734;9.340;2022-10-26T07:57:18;10.73;;;7.25;;
485;SDS011;229;48.734;9.340;2022-10-26T07:59:45;9.93;;;6.85;;
485;SDS011;229;48.734;9.340;2022-10-26T08:02:13;8.05;;;6.13;;
485;SDS011;229;48.734;9.340;2022-10-26T08:04:41;12.20;;;6.78;;
485;SDS011;229;48.734;9.340;2022-10-26T08:07:08;15.40;;;8.20;;
485;SDS011;229;48.734;9.340;2022-10-26T08:09:35;13.90;;;7.88;;
485;SDS011;229;48.734;9.340;2022-10-26T08:12:02;15.88;;;8.40;;
485;SDS011;229;48.734;9.340;2022-10-26T08:14:29;17.38;;;8.88;;
485;SDS011;229;48.734;9.340;2022-10-26T08:16:56;12.98;;;7.90;;
485;SDS011;229;48.734;9.340;2022-10-26T08:19:25;13.23;;;8.93;;
485;SDS011;229;48.734;9.340;2022-10-26T08:21:52;17.85;;;8.45;;
485;SDS011;229;48.734;9.340;2022-10-26T08:24:19;14.50;;;8.68;;
485;SDS011;229;48.734;9.340;2022-10-26T08:26:46;16.50;;;9.32;;
485;SDS011;229;48.734;9.340;2022-10-26T08:29:14;15.82;;;8.65;;
485;SDS011;229;48.734;9.340;2022-10-26T08:31:41;21.55;;;9.05;;
485;SDS011;229;48.734;9.340;2022-10-26T08:34:08;17.75;;;9.93;;
485;SDS011;229;48.734;9.340;2022-10-26T08:36:39;14.82;;;8.23;;
485;SDS011;229;48.734;9.340;2022-10-26T08:39:06;12.40;;;8.43;;
485;SDS011;229;48.734;9.340;2022-10-26T08:41:34;14.07;;;9.25;;
485;SDS011;229;48.734;9.340;2022-10-26T08:44:04;13.88;;;8.20;;
485;SDS011;229;48.734;9.340;2022-10-26T08:46:35;16.05;;;7.82;;
485;SDS011;229;48.734;9.340;2022-10-26T08:49:04;12.70;;;7.70;;
485;SDS011;229;48.734;9.340;2022-10-26T08:51:33;14.15;;;7.40;;
485;SDS011;229;48.734;9.340;2022-10-26T08:54:04;18.73;;;7.60;;
485;SDS011;229;48.734;9.340;2022-10-26T08:56:34;15.70;;;7.25;;
485;SDS011;229;48.734;9.340;2022-10-26T08:59:05;16.55;;;7.18;;
485;SDS011;229;48.734;9.340;2022-10-26T09:01:34;15.57;;;6.53;;
485;SDS011;229;48.734;9.340;2022-10-26T09:04:02;15.00;;;8.10;;
485;SDS011;229;48.734;9.340;2022-10-26T09:06:31;10.35;;;7.63;;
485;SDS011;229;48.734;9.340;2022-10-26T09:09:02;10.82;;;7.65;;
485;SDS011;229;48.734;9.340;2022-10-26T09:11:38;11.38;;;7.63;;
485;SDS011;229;48.734;9.340;2022-10-26T09:14:09;13.75;;;6.60;;
485;SDS011;229;48.734;9.340;2022-10-26T09:16:40;12.27;;;7.50;;
485;SDS011;229;48.734;9.340;2022-10-26T09:19:17;12.75;;;6.13;;
485;SDS011;229;48.734;9.340;2022-10-26T09:21:49;11.77;;;5.93;;
485;SDS011;229;48.734;9.340;2022-10-26T09:24:21;11.20;;;6.30;;
485;SDS011;229;48.734;9.340;2022-10-26T09:26:53;10.18;;;5.45;;
485;SDS011;229;48.734;9.340;2022-10-26T09:29:22;10.05;;;4.68;;
485;SDS011;229;48.734;9.340;2022-10-26T09:31:50;10.68;;;3.75;;
485;SDS011;229;48.734;9.340;2022-10-26T09:34:20;6.30;;;3.78;;
485;SDS011;229;48.734;9.340;2022-10-26T09:36:51;8.82;;;4.40;;
485;SDS011;229;48.734;9.340;2022-10-26T09:39:20;8.90;;;3.60;;
485;SDS011;229;48.734;9.340;2022-10-26T09:41:50;7.28;;;4.20;;
485;SDS011;229;48.734;9.340;2022-10-26T09:44:21;5.63;;;3.85;;
485;SDS011;229;48.734;9.340;2022-10-26T09:46:52;7.40;;;3.90;;
485;SDS011;229;48.734;9.340;2022-10-26T09:49:22;5.68;;;3.47;;
485;SDS011;229;48.734;9.340;2022-10-26T09:51:54;6.07;;;3.50;;
485;SDS011;229;48.734;9.340;2022-10-26T09:54:22;9.23;;;4.40;;
485;SDS011;229;48.734;9.340;2022-10-26T09:56:50;9.13;;;4.27;;
485;SDS011;229;48.734;9.340;2022-10-26T09:59:19;11.20;;;4.00;;
485;SDS011;229;48.734;9.340;2022-10-26T10:01:48;9.47;;;3.77;;
485;SDS011;229;48.734;9.340;2022-10-26T10:04:16;8.83;;;3.97;;
485;SDS011;229;48.734;9.340;2022-10-26T10:06:45;6.87;;;4.13;;
485;SDS011;229;48.734;9.340;2022-10-26T10:09:13;8.97;;;3.53;;
485;SDS011;229;48.734;9.340;2022-10-26T10:11:42;6.77;;;4.23;;
485;SDS011;229;48.734;9.340;2022-10-26T10:14:12;10.60;;;4.20;;
485;SDS011;229;48.734;9.340;2022-10-26T10:16:41;7.70;;;3.83;;
485;SDS011;229;48.734;9.340;2022-10-26T10:19:19;10.83;;;4.60;;
485;SDS011;229;48.734;9.340;2022-10-26T10:21:47;9.07;;;4.63;;
485;SDS011;229;48.734;9.340;2022-10-26T10:24:22;10.13;;;4.20;;
485;SDS011;229;48.734;9.340;2022-10-26T10:27:00;7.67;;;4.13;;
485;SDS011;229;48.734;9.340;2022-10-26T10:29:28;10.65;;;4.38;;
485;SDS011;229;48.734;9.340;2022-10-26T10:31:56;8.00;;;3.90;;
485;SDS011;229;48.734;9.340;2022-10-26T10:34:24;7.20;;;4.10;;
485;SDS011;229;48.734;9.340;2022-10-26T10:36:52;6.53;;;4.15;;
485;SDS011;229;48.734;9.340;2022-10-26T10:39:24;6.32;;;4.32;;
485;SDS011;229;48.734;9.340;2022-10-26T10:41:54;9.53;;;3.77;;
485;SDS011;229;48.734;9.340;2022-10-26T10:44:23;11.15;;;4.43;;
485;SDS011;229;48.734;9.340;2022-10-26T10:46:58;6.23;;;3.50;;
485;SDS011;229;48.734;9.340;2022-10-26T10:49:27;5.67;;;4.10;;
485;SDS011;229;48.734;9.340;2022-10-26T10:51:54;10.00;;;3.40;;
485;SDS011;229;48.734;9.340;2022-10-26T10:54:24;5.03;;;3.50;;
485;SDS011;229;48.734;9.340;2022-10-26T10:56:53;6.30;;;3.63;;
485;SDS011;229;48.734;9.340;2022-10-26T10:59:25;5.57;;;4.20;;
485;SDS011;229;48.734;9.340;2022-10-26T11:01:58;6.83;;;3.73;;
485;SDS011;229;48.734;9.340;2022-10-26T11:04:32;8.80;;;5.27;;
485;SDS011;229;48.734;9.340;2022-10-26T11:07:02;8.70;;;3.80;;
485;SDS011;229;48.734;9.340;2022-10-26T11:09:31;8.77;;;4.27;;
485;SDS011;229;48.734;9.340;2022-10-26T11:12:00;7.10;;;4.03;;
485;SDS011;229;48.734;9.340;2022-10-26T11:14:29;7.27;;;4.00;;
485;SDS011;229;48.734;9.340;2022-10-26T11:17:01;5.03;;;4.00;;
485;SDS011;229;48.734;9.340;2022-10-26T11:19:31;6.63;;;4.20;;
485;SDS011;229;48.734;9.340;2022-10-26T11:22:01;4.60;;;3.60;;
485;SDS011;229;48.734;9.340;2022-10-26T11:24:32;6.73;;;4.27;;
485;SDS011;229;48.734;9.340;2022-10-26T11:27:01;10.60;;;4.80;;
485;SDS011;229;48.734;9.340;2022-10-26T11:29:32;13.93;;;4.00;;
485;SDS011;229;48.734;9.340;2022-10-26T11:32:04;9.60;;;3.97;;
485;SDS011;229;48.734;9.340;2022-10-26T11:34:34;21.30;;;4.73;;
485;SDS011;229;48.734;9.340;2022-10-26T11:37:07;8.90;;;3.80;;
485;SDS011;229;48.734;9.340;2022-10-26T11:39:37;5.23;;;4.03;;
485;SDS011;229;48.734;9.340;2022-10-26T11:42:08;9.03;;;3.90;;
485;SDS011;229;48.734;9.340;2022-10-26T11:44:38;8.40;;;4.20;;
485;SDS011;229;48.734;9.340;2022-10-26T11:47:08;6.63;;;4.07;;
485;SDS011;229;48.734;9.340;2022-10-26T11:49:39;6.93;;;4.23;;
485;SDS011;229;48.734;9.340;2022-10-26T11:52:10;13.13;;;3.80;;
485;SDS011;229;48.734;9.340;2022-10-26T11:54:43;8.50;;;3.93;;
485;SDS011;229;48.734;9.340;2022-10-26T11:57:11;7.80;;;4.00;;
485;SDS011;229;48.734;9.340;2022-10-26T11:59:41;5.80;;;4.10;;
485;SDS011;229;48.734;9.340;2022-10-26T12:02:13;8.13;;;4.53;;
485;SDS011;229;48.734;9.340;2022-10-26T12:04:40;7.43;;;3.70;;
485;SDS011;229;48.734;9.340;2022-10-26T12:07:09;6.00;;;4.23;;
485;SDS011;229;48.734;9.340;2022-10-26T12:09:40;5.90;;;3.40;;
485;SDS011;229;48.734;9.340;2022-10-26T12:12:12;7.60;;;3.57;;
485;SDS011;229;48.734;9.340;2022-10-26T12:14:42;7.17;;;3.47;;
485;SDS011;229;48.734;9.340;2022-10-26T12:17:11;11.00;;;3.43;;
485;SDS011;229;48.734;9.340;2022-10-26T12:19:41;8.43;;;3.50;;
485;SDS011;229;48.734;9.340;2022-10-26T12:22:10;6.80;;;3.43;;
485;SDS011;229;48.734;9.340;2022-10-26T12:24:43;10.47;;;3.77;;
485;SDS011;229;48.734;9.340;2022-10-26T12:29:59;10.97;;;3.80;;
485;SDS011;229;48.734;9.340;2022-10-26T12:32:50;12.30;;;3.60;;
485;SDS011;229;48.734;9.340;2022-10-26T12:41:11;4.47;;;3.30;;
485;SDS011;229;48.734;9.340;2022-10-26T12:43:39;4.03;;;3.40;;
485;SDS011;229;48.734;9.340;2022-10-26T12:52:16;4.50;;;4.13;;
485;SDS011;229;48.734;9.340;2022-10-26T12:54:44;4.57;;;4.17;;
485;SDS011;229;48.734;9.340;2022-10-26T12:57:18;7.53;;;3.67;;
485;SDS011;229;48.734;9.340;2022-10-26T12:59:51;6.10;;;3.97;;
485;SDS011;229;48.734;9.340;2022-10-26T13:02:29;6.83;;;3.50;;
485;SDS011;229;48.734;9.340;2022-10-26T13:05:18;5.63;;;3.67;;
485;SDS011;229;48.734;9.340;2022-10-26T13:07:50;6.43;;;3.83;;
485;SDS011;229;48.734;9.340;2022-10-26T13:10:18;7.33;;;4.33;;
485;SDS011;229;48.734;9.340;2022-10-26T13:12:48;8.67;;;3.73;;
485;SDS011;229;48.734;9.340;2022-10-26T13:15:18;8.20;;;4.30;;
485;SDS011;229;48.734;9.340;2022-10-26T13:17:51;8.03;;;4.40;;
485;SDS011;229;48.734;9.340;2022-10-26T13:20:19;11.00;;;4.53;;
485;SDS011;229;48.734;9.340;2022-10-26T13:22:46;4.37;;;4.00;;
485;SDS011;229;48.734;9.340;2022-10-26T13:25:17;7.80;;;4.00;;
485;SDS011;229;48.734;9.340;2022-10-26T13:27:57;5.70;;;3.90;;
485;SDS011;229;48.734;9.340;2022-10-26T13:33:20;11.10;;;3.90;;
485;SDS011;229;48.734;9.340;2022-10-26T13:35:49;7.10;;;3.67;;
485;SDS011;229;48.734;9.340;2022-10-26T13:38:17;9.30;;;5.40;;
485;SDS011;229;48.734;9.340;2022-10-26T13:40:46;7.13;;;4.20;;
485;SDS011;229;48.734;9.340;2022-10-26T13:43:18;5.47;;;4.07;;
485;SDS011;229;48.734;9.340;2022-10-26T13:45:49;8.13;;;4.27;;
485;SDS011;229;48.734;9.340;2022-10-26T13:48:19;10.17;;;4.07;;
485;SDS011;229;48.734;9.340;2022-10-26T13:50:50;7.83;;;3.53;;
485;SDS011;229;48.734;9.340;2022-10-26T13:53:19;5.77;;;3.30;;
485;SDS011;229;48.734;9.340;2022-10-26T13:55:49;7.80;;;3.80;;
485;SDS011;229;48.734;9.340;2022-10-26T13:58:19;7.00;;;3.80;;
485;SDS011;229;48.734;9.340;2022-10-26T14:03:37;5.30;;;4.10;;
485;SDS011;229;48.734;9.340;2022-10-26T14:06:05;5.00;;;3.70;;
485;SDS011;229;48.734;9.340;2022-10-26T14:08:32;8.23;;;4.47;;
485;SDS011;229;48.734;9.340;2022-10-26T14:10:59;9.13;;;4.03;;
485;SDS011;229;48.734;9.340;2022-10-26T14:13:28;10.53;;;4.23;;
485;SDS011;229;48.734;9.340;2022-10-26T14:15:56;8.40;;;3.90;;
485;SDS011;229;48.734;9.340;2022-10-26T14:18:25;10.77;;;4.50;;
485;SDS011;229;48.734;9.340;2022-10-26T14:20:55;8.80;;;4.20;;
485;SDS011;229;48.734;9.340;2022-10-26T14:23:27;6.63;;;4.30;;
485;SDS011;229;48.734;9.340;2022-10-26T14:25:54;10.00;;;3.88;;
485;SDS011;229;48.734;9.340;2022-10-26T14:28:22;8.90;;;4.03;;
485;SDS011;229;48.734;9.340;2022-10-26T14:30:51;15.00;;;4.67;;
485;SDS011;229;48.734;9.340;2022-10-26T14:33:18;6.93;;;3.80;;
485;SDS011;229;48.734;9.340;2022-10-26T14:35:45;8.23;;;3.30;;
485;SDS011;229;48.734;9.340;2022-10-26T14:38:15;7.00;;;4.40;;
485;SDS011;229;48.734;9.340;2022-10-26T14:40:43;8.10;;;4.20;;
485;SDS011;229;48.734;9.340;2022-10-26T14:43:13;7.60;;;4.70;;
485;SDS011;229;48.734;9.340;2022-10-26T14:45:46;7.77;;;4.00;;
485;SDS011;229;48.734;9.340;2022-10-26T14:48:19;10.00;;;3.90;;
485;SDS011;229;48.734;9.340;2022-10-26T14:51:00;11.87;;;3.73;;
485;SDS011;229;48.734;9.340;2022-10-26T14:53:29;5.83;;;3.80;;
485;SDS011;229;48.734;9.340;2022-10-26T14:55:57;10.30;;;4.07;;
485;SDS011;229;48.734;9.340;2022-10-26T14:58:25;6.63;;;4.43;;
485;SDS011;229;48.734;9.340;2022-10-26T15:03:41;5.60;;;3.77;;
485;SDS011;229;48.734;9.340;2022-10-26T15:06:21;5.90;;;4.40;;
485;SDS011;229;48.734;9.340;2022-10-26T15:08:48;9.90;;;4.57;;
485;SDS011;229;48.734;9.340;2022-10-26T15:11:20;6.77;;;3.83;;
485;SDS011;229;48.734;9.340;2022-10-26T15:13:47;8.30;;;4.70;;
485;SDS011;229;48.734;9.340;2022-10-26T15:16:14;9.63;;;3.73;;
485;SDS011;229;48.734;9.340;2022-10-26T15:18:44;9.83;;;3.80;;
485;SDS011;229;48.734;9.340;2022-10-26T15:21:18;8.83;;;4.30;;
485;SDS011;229;48.734;9.340;2022-10-26T15:23:47;4.80;;;4.10;;
485;SDS011;229;48.734;9.340;2022-10-26T15:26:14;4.57;;;3.43;;
485;SDS011;229;48.734;9.340;2022-10-26T15:28:41;11.17;;;4.17;;
485;SDS011;229;48.734;9.340;2022-10-26T15:31:23;7.23;;;4.23;;
485;SDS011;229;48.734;9.340;2022-10-26T15:36:36;10.83;;;4.17;;
485;SDS011;229;48.734;9.340;2022-10-26T15:39:05;7.10;;;3.90;;
485;SDS011;229;48.734;9.340;2022-10-26T15:41:34;7.10;;;3.80;;
485;SDS011;229;48.734;9.340;2022-10-26T15:44:02;11.53;;;5.10;;
485;SDS011;229;48.734;9.340;2022-10-26T15:46:31;10.73;;;4.27;;
485;SDS011;229;48.734;9.340;2022-10-26T15:48:59;5.83;;;4.70;;
485;SDS011;229;48.734;9.340;2022-10-26T15:51:27;8.40;;;3.90;;
485;SDS011;229;48.734;9.340;2022-10-26T15:53:57;6.90;;;4.80;;
485;SDS011;229;48.734;9.340;2022-10-26T15:56:24;16.67;;;5.27;;
485;SDS011;229;48.734;9.340;2022-10-26T15:58:52;5.50;;;3.33;;
485;SDS011;229;48.734;9.340;2022-10-26T16:01:20;10.13;;;4.70;;
485;SDS011;229;48.734;9.340;2022-10-26T16:03:48;10.00;;;4.00;;
485;SDS011;229;48.734;9.340;2022-10-26T16:06:16;16.03;;;4.67;;
485;SDS011;229;48.734;9.340;2022-10-26T16:08:44;12.00;;;3.73;;
485;SDS011;229;48.734;9.340;2022-10-26T16:11:14;12.93;;;5.50;;
485;SDS011;229;48.734;9.340;2022-10-26T16:13:42;10.30;;;4.20;;
485;SDS011;229;48.734;9.340;2022-10-26T16:16:09;12.87;;;3.80;;
485;SDS011;229;48.734;9.340;2022-10-26T16:18:37;7.97;;;3.50;;
485;SDS011;229;48.734;9.340;2022-10-26T16:21:05;12.50;;;4.07;;
485;SDS011;229;48.734;9.340;2022-10-26T16:23:32;12.70;;;5.10;;